Kimberly, WI (54136)

7:48 PM CST on February 27, 2017 (GMT -0600)
North East Appleton | | Change Station
Active Advisory: Flood Warning

Elev 745 ft 44.28 °N, 88.37 °W | Updated 6 minutes ago

Clear
Clear
34.1 °F
Feels Like 34 °F
N
0.0
Wind Variable Wind from East
Gusts 1.0 mph

Today
High -- | Low -- °F
--% Chance of Precip.
Yesterday
High -- | Low -- °F
Precip. -- in
Pressure 30.02 in
Visibility 10.0 miles
Clouds Few 4000 ft
Windchill 34 °F
Dew Point 31 °F
Humidity 88%
Rainfall 0.00 in
Snow Depth Not available.
6:33 AM 5:39 PM
Waxing Crescent, 3% visible
METAR KATW 280145Z 09003KT 10SM FEW040 02/M02 A3002
Pressure 30.02 in
Visibility 10.0 miles
Clouds Few 4000 ft
Windchill 34 °F
Dew Point 31 °F
Humidity 88%
Rainfall 0.00 in
Snow Depth Not available.
6:33 AM 5:39 PM
Waxing Crescent, 3% visible
METAR KATW 280145Z 09003KT 10SM FEW040 02/M02 A3002

Get Your Daily Forecast Email!

Thanks for signing up!

Be on the lookout for a verification email in your inbox.

You'll start receiving the daily forecast at 8 AM.

×

10-Day Weather Forecast

Almanac

Astronomy

Feb. 27, 2017 Rise Set
Actual Time
Civil Twilight
Nautical Twilight
Astronomical Twilight
Moon
Length of Visible Light
Length of Day
Tomorrow will be .
, % of the Moon is Illuminated

Today's Extremes

State Highs State Lows

Community

WunderPhotos

Upload Photos

1,962,540 photos uploaded!

WunderBlog® & News

Nearby

Air Quality

  Air Quality AQ Index Pollutant
Not available.

Snow Depth

Station Depth Elevation

Earthquake Activity

City Distance Mag. Time & Date
Minimum magnitude displayed is 2.5.

Coastal Water Temperatures

Place Temperature

Stations

Nearby Weather Stations

Station Location Temp. Windchill Dew Point Humidity Wind Precip. Elev Updated Type
                   

Watches & Warnings

Flood Warning
Issued: 7:05 PM CST Feb. 27, 2017 – National Weather Service

The Flood Warning continues for
the Wolf River near Shiocton.
* At 7:47 am Monday the stage was 12.2 feet.
* Flood stage is 12.0 feet.
* Minor flooding is occurring and minor flooding is forecast.
* Forecast... the river will remain near 12.3 feet through Tuesday. The river is
expected to fall below flood stage Wednesday morning.
* At 12.0 feet... flooding is confined to lowland and agricultural
land. The entire boat Landing in Shiocton is under several feet of
floodwaters. Water is surrounding lowland areas around homes on
Mill Street and island street.


Lat... Lon 4468 8852 4433 8848 4434 8867 4440 8867
      4450 8863 4468 8867